Edzard Schulte — 2CVX9 — position and weather

sailwx.info

Track history (hours):
 
Tides and Currents Weather Stations Pressure Air Temp Water Temp Dewpoint Dewpoint Depression Visibility Wind Speed Wind Dir Waves Ship Positions

Edzard Schulte

Last reported at 2017-Mar-23 03:33 UTC. Time now 2017-Mar-23 14:21 UTC.
Position N 51°34' E 002°19'.

Length 145 m; draft 6.2 m.

Type: Tanker. MMSI: 235076245.

Date/timePositionNaut miles runAvg speedWind from/ knotsBaromVisibWave heightAir tempDewpointWater temp
2017-Mar-23 03:33N 51°34' E 002°19'1312.7
2017-Mar-23 02:34N 51°22' E 002°10'1212.3
2017-Mar-23 01:34N 51°12' E 001°60'1312.8
2017-Mar-23 00:33N 51°04' E 001°44'1313.2
2017-Mar-22 23:33N 50°54' E 001°29'5112.5
2017-Mar-22 19:27N 50°24' E 000°24'1213.3
2017-Mar-22 18:33N 50°21' E 000°06'4314.2
2017-Mar-22 15:30N 50°07' W 000°59'1415.1
2017-Mar-22 14:33N 50°04' W 001°20'1515.0
2017-Mar-22 13:33N 49°59' W 001°42'1514.6
2017-Mar-22 12:33N 49°56' W 002°05'3213.7
2017-Mar-22 10:14N 49°49' W 002°52'1013.3
2017-Mar-22 09:29N 49°47' W 003°08'1413.2
2017-Mar-22 08:27N 49°45' W 003°28'109 9.6
2017-Mar-21 21:06N 50°34' W 006°00'810.7
2017-Mar-21 20:19N 50°42' W 006°01'  
2017-Mar-14 05:16N 54°01' W 005°26'1012.7
2017-Mar-14 04:29N 54°11' W 005°19'1112.1
2017-Mar-14 03:33N 54°21' W 005°12'1111.4
2017-Mar-14 02:33N 54°32' W 005°12'1010.4
2017-Mar-14 01:33N 54°42' W 005°18'1211.8
2017-Mar-14 00:33N 54°52' W 005°30'2914.3
2017-Mar-13 22:33N 55°15' W 005°59'1515.0
2017-Mar-13 21:33N 55°24' W 006°20'1515.5
2017-Mar-13 20:33N 55°33' W 006°41'  
Track history (hours):
 
Tides and Currents Weather Stations Pressure Air Temp Water Temp Dewpoint Dewpoint Depression Visibility Wind Speed Wind Dir Waves Ship Positions

Edzard Schulte

Last reported at 2017-Mar-23 03:33 UTC. Time now 2017-Mar-23 14:21 UTC.
Position N 51°34' E 002°19'.

Length 145 m; draft 6.2 m.

Type: Tanker. MMSI: 235076245.

Date/timePositionNaut miles runAvg speedWind from/ knotsBaromVisibWave heightAir tempDewpointWater temp
2017-Mar-23 03:33N 51°34' E 002°19'1312.7
2017-Mar-23 02:34N 51°22' E 002°10'1212.3
2017-Mar-23 01:34N 51°12' E 001°60'1312.8
2017-Mar-23 00:33N 51°04' E 001°44'1313.2
2017-Mar-22 23:33N 50°54' E 001°29'5112.5
2017-Mar-22 19:27N 50°24' E 000°24'1213.3
2017-Mar-22 18:33N 50°21' E 000°06'4314.2
2017-Mar-22 15:30N 50°07' W 000°59'1415.1
2017-Mar-22 14:33N 50°04' W 001°20'1515.0
2017-Mar-22 13:33N 49°59' W 001°42'1514.6
2017-Mar-22 12:33N 49°56' W 002°05'3213.7
2017-Mar-22 10:14N 49°49' W 002°52'1013.3
2017-Mar-22 09:29N 49°47' W 003°08'1413.2
2017-Mar-22 08:27N 49°45' W 003°28'109 9.6
2017-Mar-21 21:06N 50°34' W 006°00'810.7
2017-Mar-21 20:19N 50°42' W 006°01'  
2017-Mar-14 05:16N 54°01' W 005°26'1012.7
2017-Mar-14 04:29N 54°11' W 005°19'1112.1
2017-Mar-14 03:33N 54°21' W 005°12'1111.4
2017-Mar-14 02:33N 54°32' W 005°12'1010.4
2017-Mar-14 01:33N 54°42' W 005°18'1211.8
2017-Mar-14 00:33N 54°52' W 005°30'2914.3
2017-Mar-13 22:33N 55°15' W 005°59'1515.0
2017-Mar-13 21:33N 55°24' W 006°20'1515.5
2017-Mar-13 20:33N 55°33' W 006°41'  

Dump ship's entire track history